createdAt,value
2018-06-09T00:01:11.037Z,81.70
2018-06-09T00:03:39.481Z,75.90
2018-06-09T00:06:07.980Z,76.37
2018-06-09T00:08:36.423Z,82.20
2018-06-09T00:11:04.977Z,82.97
2018-06-09T00:13:33.412Z,82.87
2018-06-09T00:16:01.865Z,82.10
2018-06-09T00:18:30.319Z,82.07
2018-06-09T00:20:58.813Z,80.50
2018-06-09T00:23:27.257Z,79.87
2018-06-09T00:25:55.753Z,82.60
2018-06-09T00:28:24.179Z,85.77
2018-06-09T00:30:52.614Z,87.20
2018-06-09T00:33:21.029Z,86.20
2018-06-09T00:35:49.525Z,81.20
2018-06-09T00:38:17.931Z,88.40
2018-06-09T00:40:46.412Z,87.53
2018-06-09T00:43:14.871Z,86.47
2018-06-09T00:45:43.260Z,87.87
2018-06-09T00:48:11.684Z,84.87
2018-06-09T00:50:40.127Z,79.80
2018-06-09T00:53:08.587Z,83.03
2018-06-09T00:55:37.028Z,84.13
2018-06-09T00:58:05.504Z,84.23
2018-06-09T01:00:33.903Z,83.27
2018-06-09T01:03:02.136Z,86.17
2018-06-09T01:05:30.568Z,85.57
2018-06-09T01:07:59.036Z,82.27
2018-06-09T01:10:27.514Z,90.60
2018-06-09T01:12:56.013Z,90.27
2018-06-09T01:15:24.432Z,89.00
2018-06-09T01:17:52.875Z,93.93
2018-06-09T01:20:21.330Z,96.10
2018-06-09T01:22:49.749Z,102.60
2018-06-09T01:25:18.203Z,90.83
2018-06-09T01:27:46.703Z,101.87
2018-06-09T01:30:15.260Z,102.53
2018-06-09T01:32:43.718Z,102.47
2018-06-09T01:35:12.336Z,101.03
2018-06-09T01:37:40.789Z,102.67
2018-06-09T01:40:09.310Z,105.00
2018-06-09T01:42:37.796Z,103.43
2018-06-09T01:45:06.396Z,105.50
2018-06-09T01:47:34.852Z,101.10
2018-06-09T01:50:03.361Z,105.37
2018-06-09T01:52:31.795Z,106.77
2018-06-09T01:55:00.267Z,105.10
2018-06-09T01:57:28.751Z,104.37
2018-06-09T01:59:57.259Z,106.20
2018-06-09T02:02:25.731Z,105.93
2018-06-09T02:04:54.183Z,103.73
2018-06-09T02:07:23.977Z,104.23
2018-06-09T02:09:52.417Z,103.97
2018-06-09T02:12:20.815Z,109.67
2018-06-09T02:14:49.315Z,110.57
2018-06-09T02:17:17.726Z,112.00
2018-06-09T02:19:46.247Z,106.83
2018-06-09T02:22:14.667Z,113.33
2018-06-09T02:24:43.128Z,107.43
2018-06-09T02:27:11.564Z,108.70
2018-06-09T02:29:39.992Z,100.70
2018-06-09T02:32:08.103Z,99.17
2018-06-09T02:34:36.528Z,100.67
2018-06-09T02:37:04.982Z,97.50
2018-06-09T02:39:33.442Z,94.50
2018-06-09T02:42:01.946Z,95.30
2018-06-09T02:44:30.612Z,98.43
2018-06-09T02:46:59.052Z,92.30
2018-06-09T02:49:27.498Z,96.93
2018-06-09T02:51:55.946Z,98.83
2018-06-09T02:54:24.432Z,100.17
2018-06-09T02:56:52.881Z,107.77
2018-06-09T02:59:21.032Z,106.90
2018-06-09T03:01:49.456Z,95.47
2018-06-09T03:04:17.885Z,91.50
2018-06-09T03:06:46.267Z,91.53
2018-06-09T03:09:14.673Z,87.20
2018-06-09T03:11:43.131Z,83.23
2018-06-09T03:14:11.539Z,85.90
2018-06-09T03:16:40.100Z,83.70
2018-06-09T03:19:08.540Z,82.17
2018-06-09T03:21:36.973Z,84.30
2018-06-09T03:24:05.387Z,82.63
2018-06-09T03:26:33.819Z,84.30
2018-06-09T03:29:02.223Z,86.30
2018-06-09T03:31:30.786Z,81.60
2018-06-09T03:33:59.258Z,87.47
2018-06-09T03:36:27.731Z,80.37
2018-06-09T03:38:56.143Z,83.30
2018-06-09T03:41:24.575Z,84.07
2018-06-09T03:43:52.983Z,81.83
2018-06-09T03:46:21.689Z,84.27
2018-06-09T03:48:50.186Z,81.00
2018-06-09T03:51:18.540Z,81.50
2018-06-09T03:53:46.981Z,83.20
2018-06-09T03:56:23.983Z,82.80
2018-06-09T03:58:52.439Z,86.43
2018-06-09T04:01:20.903Z,80.53
2018-06-09T04:03:49.376Z,83.60
2018-06-09T04:06:17.785Z,83.87
2018-06-09T04:08:46.261Z,89.40
2018-06-09T04:11:14.675Z,86.90
2018-06-09T04:13:43.209Z,101.07
2018-06-09T04:16:11.703Z,95.90
2018-06-09T04:18:40.411Z,93.93
2018-06-09T04:21:08.882Z,96.20
2018-06-09T04:23:37.340Z,100.10
2018-06-09T04:26:05.990Z,99.77
2018-06-09T04:28:34.428Z,97.70
2018-06-09T04:31:02.893Z,97.30
2018-06-09T04:33:31.286Z,101.23
2018-06-09T04:35:59.772Z,100.40
2018-06-09T04:38:28.166Z,100.40
2018-06-09T04:40:56.623Z,101.37
2018-06-09T04:43:25.049Z,95.10
2018-06-09T04:45:53.464Z,98.20
2018-06-09T04:48:21.976Z,97.63
2018-06-09T04:50:50.504Z,92.53
2018-06-09T04:53:18.932Z,91.77
2018-06-09T04:55:47.393Z,95.23
2018-06-09T04:58:15.890Z,92.87
2018-06-09T05:00:44.395Z,95.90
2018-06-09T05:03:12.935Z,92.50
2018-06-09T05:05:41.351Z,89.57
2018-06-09T05:08:09.923Z,93.27
2018-06-09T05:10:38.373Z,96.20
2018-06-09T05:13:06.816Z,90.77
2018-06-09T05:15:35.240Z,93.67
2018-06-09T05:18:03.676Z,92.30
2018-06-09T05:20:32.127Z,89.67
2018-06-09T05:23:00.616Z,86.43
2018-06-09T05:25:29.052Z,92.37
2018-06-09T05:27:57.500Z,87.17
2018-06-09T05:30:25.897Z,89.07
2018-06-09T05:32:54.381Z,89.67
2018-06-09T05:35:22.810Z,88.40
2018-06-09T05:37:51.278Z,92.10
2018-06-09T05:40:19.814Z,93.33
2018-06-09T05:42:48.361Z,90.63
2018-06-09T05:45:16.825Z,97.33
2018-06-09T05:47:45.246Z,92.97
2018-06-09T05:50:13.725Z,94.27
2018-06-09T05:52:42.123Z,95.57
2018-06-09T05:55:10.763Z,102.77
2018-06-09T05:57:39.182Z,103.40
2018-06-09T06:00:07.768Z,107.80
2018-06-09T06:02:36.207Z,106.10
2018-06-09T06:05:05.295Z,111.33
2018-06-09T06:07:33.806Z,105.93
2018-06-09T06:10:02.288Z,107.00
2018-06-09T06:12:30.795Z,100.33
2018-06-09T06:14:59.225Z,101.37
2018-06-09T06:17:28.096Z,98.27
2018-06-09T06:19:56.518Z,103.80
2018-06-09T06:22:24.903Z,105.40
2018-06-09T06:24:53.353Z,106.60
2018-06-09T06:27:21.804Z,108.93
2018-06-09T06:29:50.293Z,111.17
2018-06-09T06:32:18.696Z,120.40
2018-06-09T06:34:47.416Z,119.97
2018-06-09T06:37:15.992Z,112.40
2018-06-09T06:39:44.412Z,116.60
2018-06-09T06:42:12.840Z,115.57
2018-06-09T06:44:41.292Z,114.60
2018-06-09T06:47:09.799Z,115.20
2018-06-09T06:49:38.223Z,119.43
2018-06-09T06:52:06.718Z,114.17
2018-06-09T06:54:35.199Z,119.13
2018-06-09T06:57:03.652Z,110.50
2018-06-09T06:59:32.141Z,110.20
2018-06-09T07:02:00.590Z,112.27
2018-06-09T07:04:28.979Z,109.83
2018-06-09T07:06:57.435Z,106.70
2018-06-09T07:09:25.883Z,104.57
2018-06-09T07:11:54.361Z,110.67
2018-06-09T07:14:22.815Z,110.37
2018-06-09T07:16:51.207Z,107.73
2018-06-09T07:19:19.715Z,105.43
2018-06-09T07:21:48.167Z,110.17
2018-06-09T07:24:16.683Z,105.90
2018-06-09T07:26:45.098Z,109.60
2018-06-09T07:29:13.536Z,113.13
2018-06-09T07:31:42.035Z,108.13
2018-06-09T07:34:10.493Z,111.87
2018-06-09T07:36:39.023Z,108.43
2018-06-09T07:39:08.078Z,101.70
2018-06-09T07:41:36.499Z,101.43
2018-06-09T07:44:05.110Z,97.90
2018-06-09T07:46:33.605Z,98.00
2018-06-09T07:49:02.040Z,93.07
2018-06-09T07:51:30.415Z,85.80
2018-06-09T07:53:58.906Z,57.87
2018-06-09T07:56:27.381Z,60.13
2018-06-09T07:58:55.879Z,64.13
2018-06-09T08:01:24.386Z,72.83
2018-06-09T08:03:52.817Z,74.80
2018-06-09T08:06:20.937Z,78.30
2018-06-09T08:08:49.441Z,74.67
2018-06-09T08:11:17.937Z,72.80
2018-06-09T08:13:46.335Z,76.10
2018-06-09T08:16:14.886Z,71.93
2018-06-09T08:18:43.521Z,78.10
2018-06-09T08:21:11.899Z,77.23
2018-06-09T08:23:40.331Z,75.77
2018-06-09T08:26:08.743Z,83.10
2018-06-09T08:28:36.899Z,78.83
2018-06-09T08:31:05.321Z,78.53
2018-06-09T08:33:33.756Z,80.57
2018-06-09T08:36:02.388Z,81.57
2018-06-09T08:38:30.832Z,81.90
2018-06-09T08:40:59.280Z,78.93
2018-06-09T08:43:27.710Z,75.53
2018-06-09T08:45:56.156Z,76.67
2018-06-09T08:48:24.636Z,75.03
2018-06-09T08:50:53.126Z,70.47
2018-06-09T08:53:21.598Z,69.80
2018-06-09T08:55:50.027Z,70.70
2018-06-09T08:58:18.428Z,77.20
2018-06-09T09:00:46.888Z,69.57
2018-06-09T09:03:15.505Z,73.17
2018-06-09T09:05:43.860Z,73.17
2018-06-09T09:08:12.592Z,70.60
2018-06-09T09:10:41.088Z,69.67
2018-06-09T09:13:09.518Z,64.90
2018-06-09T09:15:37.936Z,67.77
2018-06-09T09:18:06.450Z,64.00
2018-06-09T09:20:34.852Z,69.67
2018-06-09T09:23:03.268Z,74.10
2018-06-09T09:25:31.694Z,68.13
2018-06-09T09:28:00.117Z,68.00
2018-06-09T09:30:28.567Z,59.90
2018-06-09T09:32:56.971Z,56.57
2018-06-09T09:35:25.421Z,60.70
2018-06-09T09:37:53.848Z,58.30
2018-06-09T09:40:22.330Z,57.50
2018-06-09T09:42:50.793Z,54.90
2018-06-09T09:45:19.208Z,51.47
2018-06-09T09:47:47.760Z,54.57
2018-06-09T09:50:16.196Z,54.30
2018-06-09T09:52:44.612Z,53.77
2018-06-09T09:55:13.039Z,58.30
2018-06-09T09:57:52.932Z,56.33
2018-06-09T10:00:23.512Z,55.80
2018-06-09T10:02:52.352Z,54.17
2018-06-09T10:05:20.884Z,51.13
2018-06-09T10:07:49.332Z,45.87
2018-06-09T10:10:18.008Z,49.80
2018-06-09T10:12:46.556Z,53.03
2018-06-09T10:15:15.118Z,51.77
2018-06-09T10:17:43.560Z,52.43
2018-06-09T10:20:12.050Z,52.83
2018-06-09T10:22:40.508Z,53.13
2018-06-09T10:25:08.944Z,52.43
2018-06-09T10:27:37.424Z,55.37
2018-06-09T10:30:05.868Z,53.30
2018-06-09T10:32:34.276Z,46.10
2018-06-09T10:35:02.752Z,48.40
2018-06-09T10:37:31.137Z,51.03
2018-06-09T10:39:59.996Z,57.83
2018-06-09T10:42:28.502Z,55.60
2018-06-09T10:44:57.616Z,53.20
2018-06-09T10:47:26.059Z,44.30
2018-06-09T10:49:54.632Z,44.17
2018-06-09T10:52:23.040Z,51.70
2018-06-09T10:54:51.733Z,51.80
2018-06-09T10:57:20.405Z,52.53
2018-06-09T10:59:48.939Z,55.90
2018-06-09T11:02:17.391Z,50.70
2018-06-09T11:04:45.953Z,40.90
2018-06-09T11:07:14.357Z,52.47
2018-06-09T11:09:42.805Z,44.80
2018-06-09T11:12:11.623Z,45.50
2018-06-09T11:14:40.091Z,43.33
2018-06-09T11:17:08.522Z,38.80
2018-06-09T11:19:36.961Z,41.80
2018-06-09T11:22:05.419Z,44.10
2018-06-09T11:24:33.897Z,37.03
2018-06-09T11:27:02.328Z,41.00
2018-06-09T11:29:30.799Z,35.97
2018-06-09T11:31:59.261Z,34.90
2018-06-09T11:34:27.721Z,33.60
2018-06-09T11:36:56.188Z,33.30
2018-06-09T11:39:25.466Z,34.77
2018-06-09T11:41:55.664Z,38.80
2018-06-09T11:44:27.397Z,37.93
2018-06-09T11:46:56.333Z,34.67
2018-06-09T11:49:24.788Z,33.43
2018-06-09T11:51:53.332Z,32.93
2018-06-09T11:54:21.787Z,30.93
2018-06-09T11:56:50.221Z,30.73
2018-06-09T11:59:18.725Z,32.80
2018-06-09T12:01:47.237Z,32.00
2018-06-09T12:04:15.621Z,30.27
2018-06-09T12:06:44.053Z,27.87
2018-06-09T12:09:12.491Z,25.77
2018-06-09T12:11:41.479Z,31.07
2018-06-09T12:14:09.963Z,30.00
2018-06-09T12:16:38.537Z,30.53
2018-06-09T12:19:11.512Z,30.47
2018-06-09T12:21:40.363Z,30.20
2018-06-09T12:24:08.803Z,29.17
2018-06-09T12:26:37.339Z,26.60
2018-06-09T12:29:05.850Z,29.33
2018-06-09T12:31:34.355Z,33.33
2018-06-09T12:34:02.870Z,32.60
2018-06-09T12:36:31.345Z,29.97
2018-06-09T12:38:59.923Z,30.20
2018-06-09T12:41:28.535Z,26.50
2018-06-09T12:43:58.139Z,31.77
2018-06-09T12:46:26.637Z,28.03
2018-06-09T12:48:55.056Z,28.20
2018-06-09T12:51:23.709Z,29.07
2018-06-09T12:53:52.183Z,27.20
2018-06-09T12:56:20.618Z,28.67
2018-06-09T12:58:49.065Z,29.90
2018-06-09T13:01:17.755Z,29.30
2018-06-09T13:03:46.208Z,27.27
2018-06-09T13:06:14.656Z,28.70
2018-06-09T13:08:43.088Z,27.73
2018-06-09T13:11:11.504Z,26.87
2018-06-09T13:13:39.952Z,29.70
2018-06-09T13:16:08.411Z,25.60
2018-06-09T13:18:37.262Z,28.73
2018-06-09T13:21:05.945Z,28.00
2018-06-09T13:23:34.497Z,30.10
2018-06-09T13:26:03.028Z,25.53
2018-06-09T13:28:31.454Z,28.67
2018-06-09T13:30:59.898Z,29.87
2018-06-09T13:33:28.352Z,27.10
2018-06-09T13:35:56.936Z,27.67
2018-06-09T13:38:25.932Z,27.07
2018-06-09T13:40:54.425Z,27.37
2018-06-09T13:43:22.866Z,27.43
2018-06-09T13:45:51.304Z,26.30
2018-06-09T13:48:19.748Z,25.57
2018-06-09T13:50:48.234Z,30.37
2018-06-09T13:53:16.736Z,23.50
2018-06-09T13:55:45.469Z,24.40
2018-06-09T13:58:13.918Z,22.47
2018-06-09T14:00:42.428Z,23.00
2018-06-09T14:03:10.861Z,24.10
2018-06-09T14:05:39.256Z,25.10
2018-06-09T14:08:07.720Z,28.80
2018-06-09T14:10:36.175Z,25.63
2018-06-09T14:13:04.626Z,23.37
2018-06-09T14:15:33.110Z,23.53
2018-06-09T14:18:01.521Z,23.70
2018-06-09T14:20:30.125Z,24.13
2018-06-09T14:22:58.567Z,27.97
2018-06-09T14:25:26.997Z,24.10
2018-06-09T14:27:55.627Z,23.87
2018-06-09T14:30:24.178Z,26.33
2018-06-09T14:32:52.600Z,24.83
2018-06-09T14:35:21.117Z,27.87
2018-06-09T14:37:49.637Z,26.13
2018-06-09T14:40:18.117Z,26.20
2018-06-09T14:42:46.521Z,27.47
2018-06-09T14:45:15.006Z,26.70
2018-06-09T14:47:43.401Z,25.10
2018-06-09T14:50:11.849Z,25.40
2018-06-09T14:52:40.565Z,23.10
2018-06-09T14:55:09.549Z,24.00
2018-06-09T14:57:38.125Z,23.23
2018-06-09T15:00:06.802Z,24.70
2018-06-09T15:02:35.233Z,27.60
2018-06-09T15:05:03.789Z,25.33
2018-06-09T15:07:33.185Z,24.47
2018-06-09T15:10:01.709Z,25.60
2018-06-09T15:12:30.181Z,25.57
2018-06-09T15:14:58.961Z,24.17
2018-06-09T15:17:27.376Z,25.17
2018-06-09T15:19:55.853Z,25.77
2018-06-09T15:22:24.329Z,27.13
2018-06-09T15:24:52.712Z,24.80
2018-06-09T15:27:21.155Z,24.23
2018-06-09T15:29:49.565Z,29.00
2018-06-09T15:32:18.068Z,30.00
2018-06-09T15:34:46.235Z,25.57
2018-06-09T15:37:14.678Z,26.10
2018-06-09T15:39:43.093Z,23.33
2018-06-09T15:42:11.506Z,23.80
2018-06-09T15:44:39.931Z,22.20
2018-06-09T15:47:08.415Z,21.67
2018-06-09T15:49:36.853Z,23.03
2018-06-09T15:52:05.456Z,24.93
2018-06-09T15:54:33.942Z,23.63
2018-06-09T15:57:02.393Z,25.07
2018-06-09T15:59:30.823Z,26.00
2018-06-09T16:01:59.248Z,27.63
2018-06-09T16:04:27.688Z,29.27
2018-06-09T16:06:56.159Z,26.47
2018-06-09T16:09:24.630Z,24.50
2018-06-09T16:11:53.036Z,27.70
2018-06-09T16:14:21.491Z,27.87
2018-06-09T16:16:49.925Z,27.90
2018-06-09T16:19:18.380Z,26.23
2018-06-09T16:21:46.853Z,25.50
2018-06-09T16:24:15.297Z,25.07
2018-06-09T16:26:43.716Z,25.27
2018-06-09T16:29:12.217Z,27.40
2018-06-09T16:31:40.603Z,27.77
2018-06-09T16:34:09.031Z,28.60
2018-06-09T16:36:37.572Z,28.60
2018-06-09T16:39:07.319Z,25.20
2018-06-09T16:41:35.989Z,25.47
2018-06-09T16:44:04.456Z,27.20
2018-06-09T16:46:33.747Z,29.27
2018-06-09T16:49:02.340Z,25.23
2018-06-09T16:51:30.740Z,26.50
2018-06-09T16:53:59.249Z,24.70
2018-06-09T16:56:27.672Z,27.47
2018-06-09T16:58:56.132Z,25.70
2018-06-09T17:01:24.602Z,27.90
2018-06-09T17:03:53.093Z,24.80
2018-06-09T17:06:21.673Z,26.57
2018-06-09T17:08:50.116Z,24.77
2018-06-09T17:11:18.585Z,25.13
2018-06-09T17:13:47.061Z,25.47
2018-06-09T17:16:15.622Z,23.83
2018-06-09T17:18:44.137Z,24.20
2018-06-09T17:21:12.245Z,23.30
2018-06-09T17:23:40.679Z,23.50
2018-06-09T17:26:09.207Z,23.00
2018-06-09T17:28:37.655Z,23.33
2018-06-09T17:31:06.101Z,24.87
2018-06-09T17:33:34.579Z,25.77
2018-06-09T17:36:03.025Z,23.80
2018-06-09T17:38:31.546Z,22.10
2018-06-09T17:41:00.039Z,23.07
2018-06-09T17:43:33.579Z,24.40
2018-06-09T17:46:01.998Z,23.20
2018-06-09T17:48:30.481Z,24.20
2018-06-09T17:50:59.029Z,28.07
2018-06-09T17:53:27.385Z,27.33
2018-06-09T17:55:55.869Z,24.20
2018-06-09T17:58:24.337Z,21.80
2018-06-09T18:00:52.876Z,23.97
2018-06-09T18:03:21.381Z,26.10
2018-06-09T18:05:49.959Z,25.23
2018-06-09T18:08:18.495Z,24.27
2018-06-09T18:10:46.918Z,26.50
2018-06-09T18:13:15.453Z,23.50
2018-06-09T18:15:43.867Z,23.80
2018-06-09T18:18:12.289Z,22.93
2018-06-09T18:20:40.979Z,25.50
2018-06-09T18:23:09.427Z,24.63
2018-06-09T18:25:37.869Z,30.37
2018-06-09T18:28:06.385Z,25.50
2018-06-09T18:30:34.833Z,25.70
2018-06-09T18:33:03.363Z,43.10
2018-06-09T18:35:31.781Z,25.17
2018-06-09T18:38:00.343Z,27.90
2018-06-09T18:40:28.889Z,25.50
2018-06-09T18:42:57.401Z,28.83
2018-06-09T18:45:25.807Z,35.43
2018-06-09T18:47:54.305Z,27.60
2018-06-09T18:50:22.767Z,27.90
2018-06-09T18:52:51.187Z,26.53
2018-06-09T18:55:19.629Z,25.60
2018-06-09T18:57:48.073Z,32.97
2018-06-09T19:00:16.477Z,29.30
2018-06-09T19:02:44.956Z,30.37
2018-06-09T19:05:13.594Z,32.10
2018-06-09T19:07:42.234Z,27.17
2018-06-09T19:10:10.728Z,29.83
2018-06-09T19:12:39.207Z,29.33
2018-06-09T19:15:07.644Z,32.30
2018-06-09T19:17:36.073Z,33.80
2018-06-09T19:20:04.986Z,30.37
2018-06-09T19:22:33.416Z,31.87
2018-06-09T19:25:01.875Z,31.90
2018-06-09T19:27:30.354Z,37.07
2018-06-09T19:29:58.827Z,38.73
2018-06-09T19:32:27.228Z,33.70
2018-06-09T19:34:55.679Z,30.60
2018-06-09T19:37:24.254Z,35.33
2018-06-09T19:39:52.668Z,32.80
2018-06-09T19:42:21.151Z,32.40
2018-06-09T19:44:49.612Z,31.27
2018-06-09T19:47:18.053Z,33.10
2018-06-09T19:49:46.622Z,35.33
2018-06-09T19:52:15.042Z,38.00
2018-06-09T19:54:43.554Z,31.10
2018-06-09T19:57:11.975Z,44.60
2018-06-09T19:59:40.444Z,44.40
2018-06-09T20:02:08.879Z,33.30
2018-06-09T20:04:37.339Z,34.43
2018-06-09T20:07:05.819Z,38.03
2018-06-09T20:09:34.979Z,38.10
2018-06-09T20:12:03.404Z,37.87
2018-06-09T20:14:31.861Z,49.17
2018-06-09T20:17:00.272Z,45.37
2018-06-09T20:19:28.747Z,43.07
2018-06-09T20:21:57.219Z,36.63
2018-06-09T20:24:25.681Z,36.33
2018-06-09T20:26:54.124Z,36.67
2018-06-09T20:29:22.641Z,36.47
2018-06-09T20:31:51.145Z,39.47
2018-06-09T20:34:19.577Z,36.27
2018-06-09T20:36:48.056Z,30.33
2018-06-09T20:39:16.485Z,33.77
2018-06-09T20:41:45.165Z,33.00
2018-06-09T20:44:14.203Z,33.20
2018-06-09T20:46:43.049Z,34.60
2018-06-09T20:49:11.666Z,33.80
2018-06-09T20:51:40.258Z,31.80
2018-06-09T20:54:08.697Z,32.97
2018-06-09T20:56:37.147Z,32.73
2018-06-09T20:59:05.641Z,39.97
2018-06-09T21:01:34.056Z,31.33
2018-06-09T21:04:02.813Z,32.40
2018-06-09T21:06:31.265Z,33.80
2018-06-09T21:08:59.725Z,33.33
2018-06-09T21:11:28.151Z,31.73
2018-06-09T21:13:56.582Z,35.37
2018-06-09T21:16:25.065Z,23.17
2018-06-09T21:18:53.540Z,31.63
2018-06-09T21:21:21.997Z,28.40
2018-06-09T21:23:50.583Z,31.50
2018-06-09T21:26:19.004Z,33.87
2018-06-09T21:28:52.616Z,32.23
2018-06-09T21:31:26.282Z,29.27
2018-06-09T21:34:06.287Z,27.93
2018-06-09T21:36:40.185Z,30.77
2018-06-09T21:39:14.233Z,28.50
2018-06-09T21:41:48.142Z,33.77
2018-06-09T21:44:22.020Z,31.97
2018-06-09T21:46:50.524Z,29.67
2018-06-09T21:49:18.958Z,27.03
2018-06-09T21:51:47.360Z,28.40
2018-06-09T21:54:15.822Z,27.43
2018-06-09T21:56:44.296Z,30.70
2018-06-09T21:59:12.754Z,32.17
2018-06-09T22:01:41.186Z,31.40
2018-06-09T22:04:09.604Z,33.80
2018-06-09T22:06:38.170Z,34.50
2018-06-09T22:09:06.850Z,31.67
2018-06-09T22:11:35.412Z,32.37
2018-06-09T22:14:03.938Z,30.10
2018-06-09T22:16:32.448Z,31.33
2018-06-09T22:19:08.773Z,33.80
2018-06-09T22:21:37.227Z,36.50
2018-06-09T22:24:06.108Z,33.60
2018-06-09T22:26:34.687Z,36.70
2018-06-09T22:29:03.119Z,36.30
2018-06-09T22:31:31.748Z,35.03
2018-06-09T22:34:11.440Z,38.33
2018-06-09T22:36:39.872Z,44.33
2018-06-09T22:39:08.989Z,37.13
2018-06-09T22:41:42.751Z,34.57
2018-06-09T22:44:11.188Z,33.80
2018-06-09T22:46:39.721Z,28.50
2018-06-09T22:49:08.186Z,29.17
2018-06-09T22:51:36.662Z,30.50
2018-06-09T22:54:05.057Z,27.73
2018-06-09T22:56:33.506Z,29.33
2018-06-09T22:59:04.273Z,32.60
2018-06-09T23:01:32.772Z,25.57
2018-06-09T23:04:01.410Z,25.50
2018-06-09T23:06:29.848Z,25.60
2018-06-09T23:08:58.333Z,21.40
2018-06-09T23:11:26.795Z,17.97
2018-06-09T23:13:55.262Z,18.50
2018-06-09T23:16:23.640Z,19.43
2018-06-09T23:18:52.113Z,20.63
2018-06-09T23:21:20.589Z,27.63
2018-06-09T23:23:49.047Z,25.47
2018-06-09T23:26:17.485Z,29.47
2018-06-09T23:28:45.904Z,34.10
2018-06-09T23:31:14.343Z,29.10
2018-06-09T23:33:42.987Z,26.93
2018-06-09T23:36:11.589Z,26.47
2018-06-09T23:38:42.502Z,31.73
2018-06-09T23:41:11.096Z,35.87
2018-06-09T23:43:39.541Z,36.40
2018-06-09T23:46:08.768Z,36.20
2018-06-09T23:48:37.257Z,32.57
2018-06-09T23:51:05.641Z,28.30
2018-06-09T23:53:34.147Z,26.90
2018-06-09T23:56:02.632Z,25.17
2018-06-09T23:58:31.058Z,24.67
